createdAt,value
2018-12-31T00:01:27.308Z,21.12
2018-12-31T00:03:55.707Z,20.80
2018-12-31T00:06:24.124Z,18.85
2018-12-31T00:08:52.579Z,19.55
2018-12-31T00:11:21.004Z,19.20
2018-12-31T00:13:49.408Z,19.60
2018-12-31T00:16:17.886Z,18.65
2018-12-31T00:18:46.288Z,19.33
2018-12-31T00:21:14.697Z,19.65
2018-12-31T00:23:43.095Z,19.90
2018-12-31T00:26:11.508Z,20.52
2018-12-31T00:28:39.922Z,19.95
2018-12-31T00:31:08.325Z,20.97
2018-12-31T00:33:36.735Z,20.23
2018-12-31T00:36:05.128Z,21.37
2018-12-31T00:38:33.537Z,20.52
2018-12-31T00:41:01.943Z,21.80
2018-12-31T00:43:30.351Z,21.30
2018-12-31T00:45:58.748Z,21.45
2018-12-31T00:48:27.156Z,23.30
2018-12-31T00:50:55.563Z,21.97
2018-12-31T00:53:23.967Z,22.48
2018-12-31T00:55:52.368Z,23.85
2018-12-31T00:58:20.781Z,23.77
2018-12-31T01:00:49.186Z,23.30
2018-12-31T01:03:17.591Z,25.48
2018-12-31T01:05:45.990Z,25.25
2018-12-31T01:08:14.659Z,25.12
2018-12-31T01:10:43.136Z,26.15
2018-12-31T01:13:11.543Z,25.83
2018-12-31T01:15:39.952Z,28.73
2018-12-31T01:18:08.355Z,27.40
2018-12-31T01:20:37.035Z,27.35
2018-12-31T01:23:05.444Z,27.82
2018-12-31T01:25:33.848Z,28.10
2018-12-31T01:28:02.340Z,28.07
2018-12-31T01:30:30.742Z,28.75
2018-12-31T01:32:59.144Z,27.52
2018-12-31T01:35:27.627Z,28.53
2018-12-31T01:37:56.030Z,28.67
2018-12-31T01:40:24.435Z,27.60
2018-12-31T01:42:52.848Z,28.77
2018-12-31T01:45:21.538Z,27.85
2018-12-31T01:47:49.943Z,27.00
2018-12-31T01:50:18.348Z,28.07
2018-12-31T01:52:46.743Z,28.20
2018-12-31T01:55:15.163Z,27.70
2018-12-31T01:57:43.567Z,27.50
2018-12-31T02:00:11.969Z,27.60
2018-12-31T02:02:40.388Z,29.12
2018-12-31T02:05:08.790Z,28.12
2018-12-31T02:07:37.199Z,28.75
2018-12-31T02:10:06.886Z,28.30
2018-12-31T02:12:35.315Z,27.27
2018-12-31T02:15:04.629Z,27.40
2018-12-31T02:17:33.028Z,27.90
2018-12-31T02:20:01.432Z,28.38
2018-12-31T02:22:29.842Z,28.90
2018-12-31T02:24:58.241Z,28.10
2018-12-31T02:27:26.680Z,27.60
2018-12-31T02:29:55.080Z,29.10
2018-12-31T02:32:23.492Z,29.23
2018-12-31T02:34:52.269Z,28.62
2018-12-31T02:37:20.671Z,31.17
2018-12-31T02:39:49.083Z,31.57
2018-12-31T02:42:17.495Z,31.60
2018-12-31T02:44:45.897Z,32.42
2018-12-31T02:47:15.208Z,31.55
2018-12-31T02:49:43.805Z,32.08
2018-12-31T02:52:12.201Z,33.00
2018-12-31T02:54:40.621Z,31.70
2018-12-31T02:57:09.018Z,31.68
2018-12-31T02:59:37.415Z,30.70
2018-12-31T03:02:05.822Z,31.10
2018-12-31T03:04:34.221Z,33.00
2018-12-31T03:07:02.628Z,30.82
2018-12-31T03:09:31.027Z,32.03
2018-12-31T03:11:59.441Z,32.65
2018-12-31T03:14:27.841Z,32.50
2018-12-31T03:16:56.265Z,34.15
2018-12-31T03:19:24.671Z,34.97
2018-12-31T03:21:53.392Z,31.62
2018-12-31T03:24:21.800Z,33.60
2018-12-31T03:26:50.456Z,31.20
2018-12-31T03:29:19.784Z,33.02
2018-12-31T03:31:48.193Z,30.32
2018-12-31T03:34:16.597Z,31.52
2018-12-31T03:36:45.004Z,35.80
2018-12-31T03:39:13.408Z,32.28
2018-12-31T03:41:41.812Z,30.72
2018-12-31T03:44:10.495Z,31.13
2018-12-31T03:46:38.892Z,30.65
2018-12-31T03:49:07.303Z,31.60
2018-12-31T03:51:35.695Z,30.32
2018-12-31T03:54:23.451Z,31.52
2018-12-31T03:56:51.920Z,32.20
2018-12-31T03:59:20.666Z,31.97
2018-12-31T04:01:49.389Z,32.03
2018-12-31T04:04:17.788Z,32.28
2018-12-31T04:06:46.192Z,33.27
2018-12-31T04:09:14.589Z,31.57
2018-12-31T04:11:42.983Z,31.65
2018-12-31T04:14:11.396Z,31.80
2018-12-31T04:16:39.799Z,31.12
2018-12-31T04:19:08.207Z,30.50
2018-12-31T04:21:36.608Z,29.97
2018-12-31T04:24:05.012Z,29.00
2018-12-31T04:26:33.409Z,28.32
2018-12-31T04:29:01.827Z,27.70
2018-12-31T04:31:30.525Z,28.87
2018-12-31T04:33:58.956Z,27.80
2018-12-31T04:36:27.356Z,26.12
2018-12-31T04:38:55.764Z,28.03
2018-12-31T04:41:24.309Z,27.75
2018-12-31T04:43:52.744Z,27.07
2018-12-31T04:46:21.147Z,27.60
2018-12-31T04:48:49.558Z,27.85
2018-12-31T04:51:18.263Z,27.37
2018-12-31T04:53:46.953Z,26.33
2018-12-31T04:56:15.359Z,26.62
2018-12-31T04:58:43.768Z,28.20
2018-12-31T05:01:12.177Z,27.58
2018-12-31T05:03:40.574Z,27.90
2018-12-31T05:06:08.980Z,29.40
2018-12-31T05:08:37.377Z,30.05
2018-12-31T05:11:05.793Z,30.10
2018-12-31T05:13:34.200Z,31.75
2018-12-31T05:16:02.860Z,33.28
2018-12-31T05:18:31.558Z,31.77
2018-12-31T05:20:59.967Z,32.45
2018-12-31T05:23:28.476Z,33.02
2018-12-31T05:25:56.881Z,33.80
2018-12-31T05:28:25.588Z,34.47
2018-12-31T05:30:54.000Z,35.60
2018-12-31T05:33:22.397Z,34.00
2018-12-31T05:35:51.120Z,35.23
2018-12-31T05:38:19.531Z,31.97
2018-12-31T05:40:47.931Z,35.30
2018-12-31T05:43:16.335Z,36.50
2018-12-31T05:45:45.176Z,35.20
2018-12-31T05:48:14.034Z,34.58
2018-12-31T05:50:42.431Z,35.40
2018-12-31T05:53:10.844Z,35.13
2018-12-31T05:55:39.248Z,35.40
2018-12-31T05:58:07.667Z,35.70
2018-12-31T06:00:36.636Z,35.17
2018-12-31T06:03:05.322Z,34.48
2018-12-31T06:05:33.727Z,34.92
2018-12-31T06:08:02.139Z,33.00
2018-12-31T06:10:30.555Z,33.50
2018-12-31T06:12:58.959Z,33.90
2018-12-31T06:15:27.363Z,33.90
2018-12-31T06:17:55.768Z,32.55
2018-12-31T06:20:24.175Z,33.40
2018-12-31T06:22:52.580Z,31.80
2018-12-31T06:25:21.061Z,32.67
2018-12-31T06:27:49.467Z,31.70
2018-12-31T06:30:17.871Z,31.85
2018-12-31T06:32:46.277Z,31.48
2018-12-31T06:35:14.691Z,34.48
2018-12-31T06:37:43.102Z,36.40
2018-12-31T06:40:11.495Z,36.27
2018-12-31T06:42:39.902Z,35.00
2018-12-31T06:45:08.313Z,34.40
2018-12-31T06:47:36.731Z,34.83
2018-12-31T06:50:06.356Z,36.58
2018-12-31T06:52:34.768Z,39.23
2018-12-31T06:55:03.249Z,37.17
2018-12-31T06:57:31.672Z,37.88
2018-12-31T07:00:00.081Z,37.10
2018-12-31T07:02:28.557Z,36.17
2018-12-31T07:04:56.986Z,35.35
2018-12-31T07:07:25.383Z,33.28
2018-12-31T07:09:53.792Z,31.73
2018-12-31T07:12:22.192Z,32.67
2018-12-31T07:14:50.599Z,31.62
2018-12-31T07:17:19.008Z,29.92
2018-12-31T07:19:47.416Z,28.60
2018-12-31T07:22:15.821Z,27.87
2018-12-31T07:24:45.341Z,29.30
2018-12-31T07:27:14.011Z,27.17
2018-12-31T07:29:42.419Z,26.10
2018-12-31T07:32:10.831Z,25.23
2018-12-31T07:34:39.254Z,25.57
2018-12-31T07:37:07.659Z,26.25
2018-12-31T07:39:36.064Z,25.57
2018-12-31T07:42:04.468Z,25.35
2018-12-31T07:44:32.904Z,24.85
2018-12-31T07:47:01.312Z,24.80
2018-12-31T07:49:29.723Z,24.87
2018-12-31T07:51:58.124Z,23.40
2018-12-31T07:54:26.530Z,23.38
2018-12-31T07:56:54.933Z,22.67
2018-12-31T07:59:23.343Z,24.32
2018-12-31T08:01:51.757Z,23.30
2018-12-31T08:04:20.180Z,23.52
2018-12-31T08:06:48.573Z,22.70
2018-12-31T08:09:16.992Z,24.43
2018-12-31T08:11:45.414Z,24.47
2018-12-31T08:14:13.815Z,24.60
2018-12-31T08:16:42.809Z,24.45
2018-12-31T08:19:11.315Z,24.12
2018-12-31T08:21:39.731Z,24.80
2018-12-31T08:24:08.136Z,23.80
2018-12-31T08:26:36.545Z,22.52
2018-12-31T08:29:04.940Z,24.67
2018-12-31T08:31:33.361Z,23.47
2018-12-31T08:34:01.760Z,24.07
2018-12-31T08:36:30.177Z,23.50
2018-12-31T08:38:58.582Z,25.50
2018-12-31T08:41:26.984Z,25.10
2018-12-31T08:43:55.405Z,27.17
2018-12-31T08:46:24.208Z,25.27
2018-12-31T08:48:52.627Z,26.25
2018-12-31T08:51:21.038Z,26.97
2018-12-31T08:53:49.443Z,26.60
2018-12-31T08:56:17.839Z,26.40
2018-12-31T08:58:46.249Z,26.65
2018-12-31T09:01:14.688Z,26.73
2018-12-31T09:03:43.083Z,28.45
2018-12-31T09:06:11.489Z,28.43
2018-12-31T09:08:39.892Z,28.55
2018-12-31T09:11:08.294Z,29.37
2018-12-31T09:13:36.755Z,28.20
2018-12-31T09:16:05.172Z,29.75
2018-12-31T09:18:33.583Z,29.15
2018-12-31T09:21:01.993Z,27.32
2018-12-31T09:23:30.404Z,25.25
2018-12-31T09:25:58.813Z,27.15
2018-12-31T09:28:27.572Z,26.95
2018-12-31T09:30:55.976Z,27.77
2018-12-31T09:33:24.402Z,26.43
2018-12-31T09:35:52.800Z,25.68
2018-12-31T09:38:21.221Z,25.95
2018-12-31T09:40:49.624Z,26.17
2018-12-31T09:43:18.038Z,25.55
2018-12-31T09:45:46.440Z,24.60
2018-12-31T09:48:14.840Z,25.90
2018-12-31T09:50:43.244Z,25.50
2018-12-31T09:53:12.695Z,25.62
2018-12-31T09:55:41.585Z,26.75
2018-12-31T09:58:10.057Z,23.40
2018-12-31T10:00:38.452Z,25.95
2018-12-31T10:03:06.868Z,24.70
2018-12-31T10:05:35.267Z,25.75
2018-12-31T10:08:03.669Z,23.35
2018-12-31T10:10:32.084Z,24.23
2018-12-31T10:13:00.486Z,24.07
2018-12-31T10:15:28.896Z,23.18
2018-12-31T10:17:57.294Z,22.13
2018-12-31T10:20:25.708Z,23.02
2018-12-31T10:22:54.207Z,23.57
2018-12-31T10:25:22.615Z,24.47
2018-12-31T10:27:51.028Z,24.47
2018-12-31T10:30:19.436Z,25.35
2018-12-31T10:32:47.843Z,24.50
2018-12-31T10:35:16.247Z,26.40
2018-12-31T10:37:44.650Z,25.67
2018-12-31T10:40:13.061Z,24.37
2018-12-31T10:42:41.460Z,24.20
2018-12-31T10:45:09.864Z,27.22
2018-12-31T10:47:38.267Z,24.57
2018-12-31T10:50:06.672Z,25.55
2018-12-31T10:52:35.072Z,25.82
2018-12-31T10:55:03.488Z,23.45
2018-12-31T10:57:31.881Z,26.02
2018-12-31T11:00:00.304Z,25.77
2018-12-31T11:02:28.704Z,26.10
2018-12-31T11:04:57.108Z,25.00
2018-12-31T11:07:25.506Z,26.52
2018-12-31T11:09:54.221Z,26.63
2018-12-31T11:12:22.635Z,24.00
2018-12-31T11:14:51.032Z,24.35
2018-12-31T11:17:19.770Z,24.02
2018-12-31T11:19:48.194Z,21.50
2018-12-31T11:22:16.928Z,21.62
2018-12-31T11:24:45.328Z,20.80
2018-12-31T11:27:13.772Z,19.20
2018-12-31T11:29:42.172Z,20.68
2018-12-31T11:32:10.581Z,20.17
2018-12-31T11:34:38.973Z,19.20
2018-12-31T11:37:07.393Z,18.00
2018-12-31T11:39:35.795Z,18.25
2018-12-31T11:42:04.195Z,21.30
2018-12-31T11:44:32.600Z,23.20
2018-12-31T11:47:01.021Z,22.80
2018-12-31T11:49:29.421Z,22.80
2018-12-31T11:51:57.828Z,23.07
2018-12-31T11:54:26.232Z,23.50
2018-12-31T11:56:54.648Z,22.50
2018-12-31T11:59:23.051Z,21.95
2018-12-31T12:01:51.467Z,20.65
2018-12-31T12:04:19.867Z,20.50
2018-12-31T12:06:48.281Z,19.12
2018-12-31T12:09:16.684Z,18.17
2018-12-31T12:11:45.100Z,15.93
2018-12-31T12:14:13.497Z,16.03
2018-12-31T12:16:41.910Z,16.77
2018-12-31T12:19:10.313Z,16.15
2018-12-31T12:21:38.785Z,16.20
2018-12-31T12:24:07.220Z,15.72
2018-12-31T12:26:35.644Z,18.43
2018-12-31T12:29:04.039Z,17.80
2018-12-31T12:31:32.723Z,18.48
2018-12-31T12:34:01.461Z,17.27
2018-12-31T12:36:29.856Z,16.40
2018-12-31T12:38:58.600Z,17.05
2018-12-31T12:41:26.996Z,17.00
2018-12-31T12:43:55.788Z,16.80
2018-12-31T12:46:24.189Z,18.25
2018-12-31T12:48:52.616Z,19.60
2018-12-31T12:51:21.025Z,20.72
2018-12-31T12:53:49.440Z,20.85
2018-12-31T12:56:17.832Z,20.72
2018-12-31T12:58:46.315Z,20.85
2018-12-31T13:01:14.715Z,20.37
2018-12-31T13:03:43.125Z,21.25
2018-12-31T13:06:11.597Z,23.40
2018-12-31T13:08:40.017Z,22.40
2018-12-31T13:11:08.424Z,19.57
2018-12-31T13:13:36.832Z,19.07
2018-12-31T13:16:05.233Z,19.82
2018-12-31T13:18:33.639Z,16.35
2018-12-31T13:21:02.044Z,17.20
2018-12-31T13:23:30.555Z,16.75
2018-12-31T13:25:58.959Z,18.50
2018-12-31T13:28:27.363Z,17.70
2018-12-31T13:30:55.769Z,18.15
2018-12-31T13:33:24.173Z,18.02
2018-12-31T13:35:52.965Z,18.20
2018-12-31T13:38:21.378Z,18.30
2018-12-31T13:40:49.792Z,19.15
2018-12-31T13:43:18.188Z,20.60
2018-12-31T13:45:46.605Z,20.25
2018-12-31T13:48:15.475Z,19.57
2018-12-31T13:50:43.880Z,19.57
2018-12-31T13:53:12.288Z,18.80
2018-12-31T13:55:40.699Z,20.23
2018-12-31T13:58:09.088Z,20.30
2018-12-31T14:00:38.009Z,20.60
2018-12-31T14:03:06.447Z,20.40
2018-12-31T14:05:34.860Z,19.90
2018-12-31T14:08:03.265Z,19.52
2018-12-31T14:10:31.755Z,19.65
2018-12-31T14:13:00.527Z,20.10
2018-12-31T14:15:28.951Z,19.95
2018-12-31T14:17:57.367Z,19.60
2018-12-31T14:20:25.782Z,18.82
2018-12-31T14:22:54.176Z,19.02
2018-12-31T14:25:22.594Z,19.12
2018-12-31T14:27:51.003Z,19.50
2018-12-31T14:30:19.401Z,18.80
2018-12-31T14:32:48.076Z,18.80
2018-12-31T14:35:16.483Z,19.95
2018-12-31T14:37:44.885Z,19.62
2018-12-31T14:40:13.326Z,21.55
2018-12-31T14:42:41.759Z,21.00
2018-12-31T14:45:10.196Z,21.40
2018-12-31T14:47:38.610Z,22.50
2018-12-31T14:50:07.340Z,21.95
2018-12-31T14:52:35.772Z,24.23
2018-12-31T14:55:04.542Z,26.07
2018-12-31T14:57:32.991Z,24.70
2018-12-31T15:00:01.393Z,26.37
2018-12-31T15:02:29.827Z,25.17
2018-12-31T15:04:58.608Z,24.27
2018-12-31T15:07:27.024Z,25.32
2018-12-31T15:09:55.427Z,23.92
2018-12-31T15:12:23.856Z,22.55
2018-12-31T15:14:52.252Z,21.87
2018-12-31T15:17:21.048Z,29.30
2018-12-31T15:19:49.443Z,31.43
2018-12-31T15:22:17.855Z,23.80
2018-12-31T15:24:46.269Z,25.48
2018-12-31T15:27:14.685Z,22.30
2018-12-31T15:29:43.080Z,30.72
2018-12-31T15:32:11.495Z,25.12
2018-12-31T15:34:39.904Z,28.17
2018-12-31T15:37:08.336Z,24.20
2018-12-31T15:39:36.724Z,24.75
2018-12-31T15:42:05.130Z,23.70
2018-12-31T15:44:33.529Z,26.02
2018-12-31T15:47:01.940Z,23.67
2018-12-31T15:49:30.343Z,24.00
2018-12-31T15:51:58.759Z,24.35
2018-12-31T15:54:27.155Z,24.23
2018-12-31T15:56:55.943Z,25.60
2018-12-31T15:59:25.507Z,25.15
2018-12-31T16:01:54.235Z,27.37
2018-12-31T16:04:22.636Z,26.02
2018-12-31T16:06:51.053Z,27.00
2018-12-31T16:09:19.827Z,25.97
2018-12-31T16:11:48.248Z,22.10
2018-12-31T16:14:16.648Z,22.52
2018-12-31T16:16:45.062Z,21.57
2018-12-31T16:19:13.467Z,23.20
2018-12-31T16:21:41.882Z,22.95
2018-12-31T16:24:10.573Z,24.20
2018-12-31T16:26:38.992Z,33.85
2018-12-31T16:29:07.464Z,22.90
2018-12-31T16:31:35.876Z,29.65
2018-12-31T16:34:04.271Z,23.20
2018-12-31T16:36:32.680Z,22.62
2018-12-31T16:39:01.080Z,22.55
2018-12-31T16:41:29.540Z,30.70
2018-12-31T16:43:57.979Z,22.22
2018-12-31T16:46:26.445Z,24.10
2018-12-31T16:48:55.575Z,22.42
2018-12-31T16:51:23.989Z,38.88
2018-12-31T16:53:52.400Z,27.25
2018-12-31T16:56:20.808Z,22.85
2018-12-31T16:58:49.254Z,23.73
2018-12-31T17:01:18.028Z,21.48
2018-12-31T17:03:46.416Z,23.63
2018-12-31T17:06:14.832Z,20.30
2018-12-31T17:08:43.233Z,22.35
2018-12-31T17:11:11.643Z,22.58
2018-12-31T17:13:40.051Z,21.85
2018-12-31T17:16:08.461Z,23.67
2018-12-31T17:18:36.867Z,24.30
2018-12-31T17:21:05.264Z,41.23
2018-12-31T17:23:33.671Z,30.70
2018-12-31T17:26:02.081Z,46.80
2018-12-31T17:28:30.867Z,39.67
2018-12-31T17:30:59.282Z,109.87
2018-12-31T17:33:29.148Z,37.53
2018-12-31T17:35:57.771Z,29.53
2018-12-31T17:38:26.175Z,28.38
2018-12-31T17:40:54.854Z,24.75
2018-12-31T17:43:23.268Z,31.70
2018-12-31T17:45:51.676Z,35.45
2018-12-31T17:48:20.087Z,30.80
2018-12-31T17:50:48.492Z,31.62
2018-12-31T17:53:16.897Z,26.42
2018-12-31T17:55:45.291Z,35.10
2018-12-31T17:58:13.704Z,27.20
2018-12-31T18:00:42.103Z,29.87
2018-12-31T18:03:10.506Z,26.40
2018-12-31T18:05:38.919Z,26.57
2018-12-31T18:08:07.703Z,25.40
2018-12-31T18:10:36.112Z,22.90
2018-12-31T18:13:04.520Z,19.75
2018-12-31T18:15:32.923Z,18.32
2018-12-31T18:18:01.448Z,19.05
2018-12-31T18:20:30.209Z,18.90
2018-12-31T18:22:58.608Z,17.30
2018-12-31T18:25:27.023Z,23.92
2018-12-31T18:27:55.423Z,22.22
2018-12-31T18:30:23.832Z,20.93
2018-12-31T18:32:52.239Z,22.27
2018-12-31T18:35:20.653Z,25.30
2018-12-31T18:37:49.059Z,25.40
2018-12-31T18:40:17.464Z,29.57
2018-12-31T18:42:45.862Z,28.85
2018-12-31T18:45:14.564Z,35.50
2018-12-31T18:47:42.963Z,23.73
2018-12-31T18:50:11.388Z,23.12
2018-12-31T18:52:39.793Z,23.42
2018-12-31T18:55:08.196Z,21.73
2018-12-31T18:57:36.592Z,24.50
2018-12-31T19:00:07.532Z,21.35
2018-12-31T19:02:35.931Z,23.75
2018-12-31T19:05:04.699Z,19.00
2018-12-31T19:07:33.095Z,20.60
2018-12-31T19:10:01.511Z,19.40
2018-12-31T19:12:30.435Z,19.40
2018-12-31T19:14:58.852Z,20.15
2018-12-31T19:17:27.248Z,22.17
2018-12-31T19:19:55.972Z,21.17
2018-12-31T19:22:24.375Z,25.92
2018-12-31T19:24:52.775Z,28.32
2018-12-31T19:27:21.183Z,27.80
2018-12-31T19:29:49.603Z,32.75
2018-12-31T19:32:18.004Z,29.32
2018-12-31T19:34:46.409Z,30.25
2018-12-31T19:37:14.822Z,28.50
2018-12-31T19:39:43.491Z,20.08
2018-12-31T19:42:11.919Z,19.62
2018-12-31T19:44:40.319Z,19.50
2018-12-31T19:47:08.744Z,16.60
2018-12-31T19:49:37.152Z,18.27
2018-12-31T19:52:05.559Z,17.32
2018-12-31T19:54:33.965Z,18.85
2018-12-31T19:57:02.376Z,21.70
2018-12-31T19:59:30.777Z,24.47
2018-12-31T20:01:59.180Z,23.20
2018-12-31T20:04:27.584Z,21.50
2018-12-31T20:07:01.168Z,45.10
2018-12-31T20:09:26.120Z,41.63
2018-12-31T20:11:54.536Z,53.38
2018-12-31T20:14:22.943Z,26.95
2018-12-31T20:16:51.353Z,25.48
2018-12-31T20:19:20.037Z,20.80
2018-12-31T20:21:48.444Z,21.87
2018-12-31T20:24:16.880Z,24.30
2018-12-31T20:26:45.288Z,30.62
2018-12-31T20:29:14.016Z,24.67
2018-12-31T20:31:42.428Z,30.82
2018-12-31T20:34:10.837Z,32.83
2018-12-31T20:36:39.315Z,38.92
2018-12-31T20:39:07.722Z,37.98
2018-12-31T20:41:36.145Z,41.60
2018-12-31T20:44:04.543Z,55.50
2018-12-31T20:46:32.960Z,48.40
2018-12-31T20:49:01.379Z,46.08
2018-12-31T20:51:29.784Z,54.50
2018-12-31T20:53:58.381Z,46.37
2018-12-31T20:56:26.789Z,44.38
2018-12-31T20:58:55.226Z,37.45
2018-12-31T21:01:24.106Z,39.75
2018-12-31T21:03:52.553Z,34.83
2018-12-31T21:06:21.085Z,35.88
2018-12-31T21:08:49.990Z,38.50
2018-12-31T21:11:18.565Z,34.35
2018-12-31T21:13:47.067Z,30.65
2018-12-31T21:16:15.588Z,28.90
2018-12-31T21:18:44.084Z,25.62
2018-12-31T21:21:12.540Z,28.52
2018-12-31T21:23:41.290Z,26.30
2018-12-31T21:26:10.881Z,27.17
2018-12-31T21:28:39.784Z,29.35
2018-12-31T21:31:08.189Z,62.35
2018-12-31T21:33:36.603Z,31.05
2018-12-31T21:36:05.009Z,35.95
2018-12-31T21:38:33.417Z,26.87
2018-12-31T21:41:01.816Z,23.25
2018-12-31T21:43:30.228Z,23.98
2018-12-31T21:45:58.634Z,25.40
2018-12-31T21:48:27.044Z,23.67
2018-12-31T21:50:55.456Z,23.27
2018-12-31T21:53:24.192Z,23.32
2018-12-31T21:55:52.668Z,22.03
2018-12-31T21:58:21.077Z,21.20
2018-12-31T22:00:49.479Z,23.22
2018-12-31T22:03:17.899Z,21.42
2018-12-31T22:05:46.556Z,20.95
2018-12-31T22:08:14.966Z,20.05
2018-12-31T22:10:43.371Z,22.37
2018-12-31T22:13:11.771Z,21.55
2018-12-31T22:15:40.189Z,29.65
2018-12-31T22:18:08.596Z,23.67
2018-12-31T22:20:36.991Z,39.88
2018-12-31T22:23:05.456Z,25.47
2018-12-31T22:25:34.192Z,66.05
2018-12-31T22:28:02.587Z,28.65
2018-12-31T22:30:30.996Z,23.52
2018-12-31T22:32:59.399Z,27.25
2018-12-31T22:35:28.188Z,27.50
2018-12-31T22:37:56.591Z,38.15
2018-12-31T22:40:24.995Z,54.70
2018-12-31T22:42:53.405Z,28.70
2018-12-31T22:45:21.819Z,28.38
2018-12-31T22:47:50.218Z,27.30
2018-12-31T22:50:18.620Z,29.70
2018-12-31T22:52:47.020Z,29.40
2018-12-31T22:55:15.419Z,38.70
2018-12-31T22:57:43.819Z,46.10
2018-12-31T23:00:12.251Z,112.00
2018-12-31T23:02:40.670Z,328.88
2018-12-31T23:05:09.720Z,493.82
2018-12-31T23:07:38.127Z,371.52
2018-12-31T23:10:08.674Z,391.70
2018-12-31T23:12:37.087Z,302.77
2018-12-31T23:15:08.964Z,387.75
2018-12-31T23:17:37.384Z,377.18
2018-12-31T23:20:08.828Z,319.87
2018-12-31T23:22:37.403Z,225.65
2018-12-31T23:25:05.819Z,172.57
2018-12-31T23:27:34.299Z,204.20
2018-12-31T23:30:02.795Z,206.07
2018-12-31T23:32:31.195Z,172.50
2018-12-31T23:34:59.617Z,126.35
2018-12-31T23:37:28.021Z,142.53
2018-12-31T23:39:56.426Z,116.08
2018-12-31T23:42:24.835Z,92.42
2018-12-31T23:44:53.444Z,61.37
2018-12-31T23:47:22.236Z,55.80
2018-12-31T23:49:50.635Z,45.52
2018-12-31T23:52:19.051Z,47.35
2018-12-31T23:54:47.787Z,40.38
2018-12-31T23:57:16.188Z,41.05
2018-12-31T23:59:44.601Z,44.30
